sensor_id;sensor_type;location;lat;lon;timestamp;temperature;humidity
30150;DHT22;16962;48.646;9.026;2023-03-29T00:00:11;3.80;99.90
30150;DHT22;16962;48.646;9.026;2023-03-29T00:03:00;3.90;99.90
30150;DHT22;16962;48.646;9.026;2023-03-29T00:05:50;3.80;99.90
30150;DHT22;16962;48.646;9.026;2023-03-29T00:08:45;3.80;1.00
30150;DHT22;16962;48.646;9.026;2023-03-29T00:11:33;3.80;1.00
30150;DHT22;16962;48.646;9.026;2023-03-29T00:14:20;3.80;1.00
30150;DHT22;16962;48.646;9.026;2023-03-29T00:17:11;3.90;1.00
30150;DHT22;16962;48.646;9.026;2023-03-29T00:19:58;3.80;1.00
30150;DHT22;16962;48.646;9.026;2023-03-29T00:22:49;3.80;16.00
30150;DHT22;16962;48.646;9.026;2023-03-29T00:25:36;3.90;24.50
30150;DHT22;16962;48.646;9.026;2023-03-29T00:28:27;3.90;17.10
30150;DHT22;16962;48.646;9.026;2023-03-29T00:31:17;3.90;33.80
30150;DHT22;16962;48.646;9.026;2023-03-29T00:34:05;3.80;50.00
30150;DHT22;16962;48.646;9.026;2023-03-29T00:36:53;3.90;76.60
30150;DHT22;16962;48.646;9.026;2023-03-29T00:39:44;3.80;82.80
30150;DHT22;16962;48.646;9.026;2023-03-29T00:42:32;3.80;83.90
30150;DHT22;16962;48.646;9.026;2023-03-29T00:45:24;3.80;74.80
30150;DHT22;16962;48.646;9.026;2023-03-29T00:48:24;3.80;89.80
30150;DHT22;16962;48.646;9.026;2023-03-29T00:51:17;3.90;99.90
30150;DHT22;16962;48.646;9.026;2023-03-29T00:54:08;3.80;98.10
30150;DHT22;16962;48.646;9.026;2023-03-29T00:57:01;3.80;47.90
30150;DHT22;16962;48.646;9.026;2023-03-29T00:59:50;3.80;99.90
30150;DHT22;16962;48.646;9.026;2023-03-29T01:02:38;3.80;99.90
30150;DHT22;16962;48.646;9.026;2023-03-29T01:05:34;3.90;99.90
30150;DHT22;16962;48.646;9.026;2023-03-29T01:08:26;3.80;99.90
30150;DHT22;16962;48.646;9.026;2023-03-29T01:11:41;3.80;99.90
30150;DHT22;16962;48.646;9.026;2023-03-29T01:14:40;3.80;99.90
30150;DHT22;16962;48.646;9.026;2023-03-29T01:17:28;3.80;99.90
30150;DHT22;16962;48.646;9.026;2023-03-29T01:24:06;3.80;99.90
30150;DHT22;16962;48.646;9.026;2023-03-29T01:29:57;3.70;99.90
30150;DHT22;16962;48.646;9.026;2023-03-29T01:36:01;3.70;99.90
30150;DHT22;16962;48.646;9.026;2023-03-29T01:39:00;3.70;99.90
30150;DHT22;16962;48.646;9.026;2023-03-29T01:54:32;3.80;99.90
30150;DHT22;16962;48.646;9.026;2023-03-29T01:57:23;3.80;99.90
30150;DHT22;16962;48.646;9.026;2023-03-29T02:00:19;3.80;99.90
30150;DHT22;16962;48.646;9.026;2023-03-29T02:03:09;3.80;89.70
30150;DHT22;16962;48.646;9.026;2023-03-29T02:05:57;3.80;1.00
30150;DHT22;16962;48.646;9.026;2023-03-29T02:08:45;3.80;1.00
30150;DHT22;16962;48.646;9.026;2023-03-29T02:11:35;3.90;1.00
30150;DHT22;16962;48.646;9.026;2023-03-29T02:14:24;3.90;99.90
30150;DHT22;16962;48.646;9.026;2023-03-29T02:23:23;4.00;1.00
30150;DHT22;16962;48.646;9.026;2023-03-29T02:26:13;4.10;1.00
30150;DHT22;16962;48.646;9.026;2023-03-29T02:29:02;4.20;1.00
30150;DHT22;16962;48.646;9.026;2023-03-29T02:31:54;4.30;99.90
30150;DHT22;16962;48.646;9.026;2023-03-29T02:34:52;4.60;99.90
30150;DHT22;16962;48.646;9.026;2023-03-29T02:37:48;4.80;99.90
30150;DHT22;16962;48.646;9.026;2023-03-29T02:40:38;5.20;1.00
30150;DHT22;16962;48.646;9.026;2023-03-29T02:43:28;5.40;99.90
30150;DHT22;16962;48.646;9.026;2023-03-29T02:46:17;5.50;1.00
30150;DHT22;16962;48.646;9.026;2023-03-29T02:49:05;5.60;99.90
30150;DHT22;16962;48.646;9.026;2023-03-29T02:51:56;5.70;99.90
30150;DHT22;16962;48.646;9.026;2023-03-29T02:54:47;5.70;99.90
30150;DHT22;16962;48.646;9.026;2023-03-29T02:57:36;5.70;99.90
30150;DHT22;16962;48.646;9.026;2023-03-29T03:00:28;5.80;58.70
30150;DHT22;16962;48.646;9.026;2023-03-29T03:03:17;5.80;22.20
30150;DHT22;16962;48.646;9.026;2023-03-29T03:06:05;5.80;1.00
30150;DHT22;16962;48.646;9.026;2023-03-29T03:08:52;5.80;1.00
30150;DHT22;16962;48.646;9.026;2023-03-29T03:11:42;5.90;1.00
30150;DHT22;16962;48.646;9.026;2023-03-29T03:14:30;5.80;1.00
30150;DHT22;16962;48.646;9.026;2023-03-29T03:17:17;5.80;1.00
30150;DHT22;16962;48.646;9.026;2023-03-29T03:20:10;5.80;1.00
30150;DHT22;16962;48.646;9.026;2023-03-29T03:23:01;5.90;1.00
30150;DHT22;16962;48.646;9.026;2023-03-29T03:25:49;5.90;1.00
30150;DHT22;16962;48.646;9.026;2023-03-29T03:28:38;6.00;1.00
30150;DHT22;16962;48.646;9.026;2023-03-29T03:31:32;6.00;1.00
30150;DHT22;16962;48.646;9.026;2023-03-29T03:34:21;6.00;1.00
30150;DHT22;16962;48.646;9.026;2023-03-29T03:37:08;6.10;1.00
30150;DHT22;16962;48.646;9.026;2023-03-29T03:39:58;6.10;1.00
30150;DHT22;16962;48.646;9.026;2023-03-29T03:42:46;6.10;1.00
30150;DHT22;16962;48.646;9.026;2023-03-29T03:45:33;6.10;99.90
30150;DHT22;16962;48.646;9.026;2023-03-29T03:48:22;6.10;99.90
30150;DHT22;16962;48.646;9.026;2023-03-29T03:51:09;6.10;99.90
30150;DHT22;16962;48.646;9.026;2023-03-29T03:53:56;6.20;99.90
30150;DHT22;16962;48.646;9.026;2023-03-29T03:56:44;6.10;99.90
30150;DHT22;16962;48.646;9.026;2023-03-29T03:59:31;6.10;99.90
30150;DHT22;16962;48.646;9.026;2023-03-29T04:02:18;6.20;99.90
30150;DHT22;16962;48.646;9.026;2023-03-29T04:05:06;6.20;99.90
30150;DHT22;16962;48.646;9.026;2023-03-29T04:07:54;6.20;99.90
30150;DHT22;16962;48.646;9.026;2023-03-29T04:10:42;6.20;99.90
30150;DHT22;16962;48.646;9.026;2023-03-29T04:13:37;6.20;99.90
30150;DHT22;16962;48.646;9.026;2023-03-29T04:16:24;6.20;99.90
30150;DHT22;16962;48.646;9.026;2023-03-29T04:19:12;6.10;99.90
30150;DHT22;16962;48.646;9.026;2023-03-29T04:22:00;6.10;99.90
30150;DHT22;16962;48.646;9.026;2023-03-29T04:24:47;6.10;99.90
30150;DHT22;16962;48.646;9.026;2023-03-29T04:27:34;6.10;99.90
30150;DHT22;16962;48.646;9.026;2023-03-29T04:30:22;6.10;99.90
30150;DHT22;16962;48.646;9.026;2023-03-29T04:33:10;6.00;99.90
30150;DHT22;16962;48.646;9.026;2023-03-29T04:35:57;6.00;99.90
30150;DHT22;16962;48.646;9.026;2023-03-29T04:38:45;6.00;99.90
30150;DHT22;16962;48.646;9.026;2023-03-29T04:41:38;6.10;99.90
30150;DHT22;16962;48.646;9.026;2023-03-29T04:44:27;6.10;99.90
30150;DHT22;16962;48.646;9.026;2023-03-29T04:47:15;6.00;99.90
30150;DHT22;16962;48.646;9.026;2023-03-29T04:50:06;6.00;99.90
30150;DHT22;16962;48.646;9.026;2023-03-29T04:52:54;6.10;99.90
30150;DHT22;16962;48.646;9.026;2023-03-29T04:55:46;6.10;99.90
30150;DHT22;16962;48.646;9.026;2023-03-29T04:58:33;6.10;99.90
30150;DHT22;16962;48.646;9.026;2023-03-29T05:01:21;6.10;99.90
30150;DHT22;16962;48.646;9.026;2023-03-29T05:04:10;6.10;99.90
30150;DHT22;16962;48.646;9.026;2023-03-29T05:06:58;6.10;99.90
30150;DHT22;16962;48.646;9.026;2023-03-29T05:09:47;6.10;99.90
30150;DHT22;16962;48.646;9.026;2023-03-29T05:12:34;6.00;99.90
30150;DHT22;16962;48.646;9.026;2023-03-29T05:15:22;6.00;99.90
30150;DHT22;16962;48.646;9.026;2023-03-29T05:18:09;6.00;99.90
30150;DHT22;16962;48.646;9.026;2023-03-29T05:20:59;6.00;99.90
30150;DHT22;16962;48.646;9.026;2023-03-29T05:23:47;6.10;99.90
30150;DHT22;16962;48.646;9.026;2023-03-29T05:26:34;6.20;99.90
30150;DHT22;16962;48.646;9.026;2023-03-29T05:29:22;6.30;99.90
30150;DHT22;16962;48.646;9.026;2023-03-29T05:32:10;6.50;99.90
30150;DHT22;16962;48.646;9.026;2023-03-29T05:34:57;6.60;99.90
30150;DHT22;16962;48.646;9.026;2023-03-29T05:37:44;6.60;99.90
30150;DHT22;16962;48.646;9.026;2023-03-29T05:40:36;6.70;99.90
30150;DHT22;16962;48.646;9.026;2023-03-29T05:43:23;6.80;99.90
30150;DHT22;16962;48.646;9.026;2023-03-29T05:46:17;6.90;99.90
30150;DHT22;16962;48.646;9.026;2023-03-29T05:49:04;7.00;99.90
30150;DHT22;16962;48.646;9.026;2023-03-29T05:51:54;7.10;99.90
30150;DHT22;16962;48.646;9.026;2023-03-29T05:54:43;7.10;99.90
30150;DHT22;16962;48.646;9.026;2023-03-29T05:57:30;7.20;99.90
30150;DHT22;16962;48.646;9.026;2023-03-29T06:00:18;7.30;99.90
30150;DHT22;16962;48.646;9.026;2023-03-29T06:03:15;7.30;99.90
30150;DHT22;16962;48.646;9.026;2023-03-29T06:06:25;7.40;99.90
30150;DHT22;16962;48.646;9.026;2023-03-29T06:09:13;7.50;99.90
30150;DHT22;16962;48.646;9.026;2023-03-29T06:12:07;7.50;99.90
30150;DHT22;16962;48.646;9.026;2023-03-29T06:14:54;7.50;99.90
30150;DHT22;16962;48.646;9.026;2023-03-29T06:17:44;7.60;99.90
30150;DHT22;16962;48.646;9.026;2023-03-29T06:20:32;7.70;99.90
30150;DHT22;16962;48.646;9.026;2023-03-29T06:23:20;7.80;99.90
30150;DHT22;16962;48.646;9.026;2023-03-29T06:26:11;7.90;99.90
30150;DHT22;16962;48.646;9.026;2023-03-29T06:29:01;8.00;99.90
30150;DHT22;16962;48.646;9.026;2023-03-29T06:31:50;8.00;99.90
30150;DHT22;16962;48.646;9.026;2023-03-29T06:34:33;8.00;99.90
30150;DHT22;16962;48.646;9.026;2023-03-29T06:37:25;8.00;99.90
30150;DHT22;16962;48.646;9.026;2023-03-29T06:40:14;8.00;99.90
30150;DHT22;16962;48.646;9.026;2023-03-29T06:43:03;7.90;99.90
30150;DHT22;16962;48.646;9.026;2023-03-29T06:45:52;7.90;99.90
30150;DHT22;16962;48.646;9.026;2023-03-29T06:48:40;7.80;99.90
30150;DHT22;16962;48.646;9.026;2023-03-29T06:51:27;7.80;99.90
30150;DHT22;16962;48.646;9.026;2023-03-29T06:54:17;7.80;99.90
30150;DHT22;16962;48.646;9.026;2023-03-29T06:57:04;7.80;99.90
30150;DHT22;16962;48.646;9.026;2023-03-29T06:59:52;7.80;99.90
30150;DHT22;16962;48.646;9.026;2023-03-29T07:02:40;7.90;99.90
30150;DHT22;16962;48.646;9.026;2023-03-29T07:05:29;7.90;99.90
30150;DHT22;16962;48.646;9.026;2023-03-29T07:08:21;8.00;99.90
30150;DHT22;16962;48.646;9.026;2023-03-29T07:11:13;8.10;99.90
30150;DHT22;16962;48.646;9.026;2023-03-29T07:14:00;8.20;99.90
30150;DHT22;16962;48.646;9.026;2023-03-29T07:16:49;8.30;99.90
30150;DHT22;16962;48.646;9.026;2023-03-29T07:19:37;8.40;99.90
30150;DHT22;16962;48.646;9.026;2023-03-29T07:22:25;8.60;99.90
30150;DHT22;16962;48.646;9.026;2023-03-29T07:25:13;8.70;99.90
30150;DHT22;16962;48.646;9.026;2023-03-29T07:28:04;8.90;99.90
30150;DHT22;16962;48.646;9.026;2023-03-29T07:30:59;9.00;99.90
30150;DHT22;16962;48.646;9.026;2023-03-29T07:34:29;9.20;99.90
30150;DHT22;16962;48.646;9.026;2023-03-29T07:37:22;9.20;99.90
30150;DHT22;16962;48.646;9.026;2023-03-29T07:40:14;9.00;99.90
30150;DHT22;16962;48.646;9.026;2023-03-29T07:43:05;8.90;99.90
30150;DHT22;16962;48.646;9.026;2023-03-29T07:45:55;8.90;99.90
30150;DHT22;16962;48.646;9.026;2023-03-29T07:48:46;8.90;99.90
30150;DHT22;16962;48.646;9.026;2023-03-29T07:51:38;8.90;99.90
30150;DHT22;16962;48.646;9.026;2023-03-29T07:54:26;9.00;99.90
30150;DHT22;16962;48.646;9.026;2023-03-29T07:57:13;9.00;99.90
30150;DHT22;16962;48.646;9.026;2023-03-29T08:00:01;9.10;99.90
30150;DHT22;16962;48.646;9.026;2023-03-29T08:03:06;9.20;99.90
30150;DHT22;16962;48.646;9.026;2023-03-29T08:05:54;9.20;99.90
30150;DHT22;16962;48.646;9.026;2023-03-29T08:08:41;9.20;99.90
30150;DHT22;16962;48.646;9.026;2023-03-29T08:11:29;9.40;99.90
30150;DHT22;16962;48.646;9.026;2023-03-29T08:14:16;9.40;99.90
30150;DHT22;16962;48.646;9.026;2023-03-29T08:17:05;9.50;99.90
30150;DHT22;16962;48.646;9.026;2023-03-29T08:19:55;9.60;99.90
30150;DHT22;16962;48.646;9.026;2023-03-29T08:22:43;9.60;99.90
30150;DHT22;16962;48.646;9.026;2023-03-29T08:25:30;9.60;99.90
30150;DHT22;16962;48.646;9.026;2023-03-29T08:28:18;9.60;99.90
30150;DHT22;16962;48.646;9.026;2023-03-29T08:31:12;9.70;99.90
30150;DHT22;16962;48.646;9.026;2023-03-29T08:34:08;9.70;99.90
30150;DHT22;16962;48.646;9.026;2023-03-29T08:36:55;9.70;99.90
30150;DHT22;16962;48.646;9.026;2023-03-29T08:39:45;9.70;99.90
30150;DHT22;16962;48.646;9.026;2023-03-29T08:49:03;10.00;99.90
30150;DHT22;16962;48.646;9.026;2023-03-29T08:51:55;9.90;99.90
30150;DHT22;16962;48.646;9.026;2023-03-29T08:54:47;9.90;99.90
30150;DHT22;16962;48.646;9.026;2023-03-29T08:57:49;9.90;99.90
30150;DHT22;16962;48.646;9.026;2023-03-29T09:00:45;10.10;99.90
30150;DHT22;16962;48.646;9.026;2023-03-29T09:04:16;10.10;99.90
30150;DHT22;16962;48.646;9.026;2023-03-29T09:07:08;10.10;99.90
30150;DHT22;16962;48.646;9.026;2023-03-29T09:09:57;10.30;99.90
30150;DHT22;16962;48.646;9.026;2023-03-29T09:13:09;10.40;99.90
30150;DHT22;16962;48.646;9.026;2023-03-29T09:19:38;10.20;99.90
30150;DHT22;16962;48.646;9.026;2023-03-29T09:25:23;10.60;99.90
30150;DHT22;16962;48.646;9.026;2023-03-29T09:28:12;11.00;99.90
30150;DHT22;16962;48.646;9.026;2023-03-29T09:34:12;12.00;99.90
30150;DHT22;16962;48.646;9.026;2023-03-29T09:37:11;11.90;99.90
30150;DHT22;16962;48.646;9.026;2023-03-29T09:40:15;11.70;99.70
30150;DHT22;16962;48.646;9.026;2023-03-29T09:43:13;11.40;98.20
30150;DHT22;16962;48.646;9.026;2023-03-29T09:46:08;11.50;98.40
30150;DHT22;16962;48.646;9.026;2023-03-29T09:49:05;11.70;92.60
30150;DHT22;16962;48.646;9.026;2023-03-29T09:52:03;11.80;91.20
30150;DHT22;16962;48.646;9.026;2023-03-29T09:54:52;11.70;93.20
30150;DHT22;16962;48.646;9.026;2023-03-29T09:57:44;11.80;90.50
30150;DHT22;16962;48.646;9.026;2023-03-29T10:00:32;11.90;90.40
30150;DHT22;16962;48.646;9.026;2023-03-29T10:03:25;12.10;87.10
30150;DHT22;16962;48.646;9.026;2023-03-29T10:06:13;12.30;84.30
30150;DHT22;16962;48.646;9.026;2023-03-29T10:09:02;12.50;81.20
30150;DHT22;16962;48.646;9.026;2023-03-29T10:11:52;13.00;74.40
30150;DHT22;16962;48.646;9.026;2023-03-29T10:14:48;13.40;68.00
30150;DHT22;16962;48.646;9.026;2023-03-29T10:17:40;13.40;57.60
30150;DHT22;16962;48.646;9.026;2023-03-29T10:20:28;13.30;54.60
30150;DHT22;16962;48.646;9.026;2023-03-29T10:23:17;13.90;56.90
30150;DHT22;16962;48.646;9.026;2023-03-29T10:26:06;14.40;55.50
30150;DHT22;16962;48.646;9.026;2023-03-29T10:28:55;14.50;51.90
30150;DHT22;16962;48.646;9.026;2023-03-29T10:31:46;14.80;46.60
30150;DHT22;16962;48.646;9.026;2023-03-29T10:34:36;14.80;40.70
30150;DHT22;16962;48.646;9.026;2023-03-29T10:37:31;15.00;39.50
30150;DHT22;16962;48.646;9.026;2023-03-29T10:40:21;15.80;41.90
30150;DHT22;16962;48.646;9.026;2023-03-29T10:43:32;16.70;50.10
30150;DHT22;16962;48.646;9.026;2023-03-29T10:49:19;15.90;18.40
30150;DHT22;16962;48.646;9.026;2023-03-29T10:52:07;15.30;15.80
30150;DHT22;16962;48.646;9.026;2023-03-29T10:54:57;14.70;16.50
30150;DHT22;16962;48.646;9.026;2023-03-29T10:57:58;14.60;13.80
30150;DHT22;16962;48.646;9.026;2023-03-29T11:00:50;14.80;13.70
30150;DHT22;16962;48.646;9.026;2023-03-29T11:09:58;15.40;15.20
30150;DHT22;16962;48.646;9.026;2023-03-29T11:13:19;16.40;13.80
30150;DHT22;16962;48.646;9.026;2023-03-29T11:25:19;17.30;1.00
30150;DHT22;16962;48.646;9.026;2023-03-29T11:31:54;16.30;1.00
30150;DHT22;16962;48.646;9.026;2023-03-29T11:38:28;15.70;1.00
30150;DHT22;16962;48.646;9.026;2023-03-29T11:41:17;15.40;1.00
30150;DHT22;16962;48.646;9.026;2023-03-29T11:44:21;15.40;1.00
30150;DHT22;16962;48.646;9.026;2023-03-29T11:47:14;15.80;1.00
30150;DHT22;16962;48.646;9.026;2023-03-29T11:50:13;16.40;1.00
30150;DHT22;16962;48.646;9.026;2023-03-29T11:53:19;16.80;1.00
30150;DHT22;16962;48.646;9.026;2023-03-29T11:56:19;16.60;1.00
30150;DHT22;16962;48.646;9.026;2023-03-29T11:59:23;16.90;1.00
30150;DHT22;16962;48.646;9.026;2023-03-29T12:02:29;15.80;1.00
30150;DHT22;16962;48.646;9.026;2023-03-29T12:05:31;15.30;1.00
30150;DHT22;16962;48.646;9.026;2023-03-29T12:11:37;15.50;1.00
30150;DHT22;16962;48.646;9.026;2023-03-29T12:14:30;15.40;1.00
30150;DHT22;16962;48.646;9.026;2023-03-29T12:17:31;15.20;1.00
30150;DHT22;16962;48.646;9.026;2023-03-29T12:20:24;15.10;1.00
30150;DHT22;16962;48.646;9.026;2023-03-29T12:23:20;15.00;1.00
30150;DHT22;16962;48.646;9.026;2023-03-29T12:26:18;14.80;1.00
30150;DHT22;16962;48.646;9.026;2023-03-29T12:38:33;14.40;1.00
30150;DHT22;16962;48.646;9.026;2023-03-29T12:41:22;14.20;1.00
30150;DHT22;16962;48.646;9.026;2023-03-29T12:44:16;13.70;1.00
30150;DHT22;16962;48.646;9.026;2023-03-29T12:47:18;14.00;1.00
30150;DHT22;16962;48.646;9.026;2023-03-29T12:50:26;14.50;1.00
30150;DHT22;16962;48.646;9.026;2023-03-29T12:53:33;14.90;1.00
30150;DHT22;16962;48.646;9.026;2023-03-29T12:56:51;15.10;1.00
30150;DHT22;16962;48.646;9.026;2023-03-29T12:59:48;15.10;1.00
30150;DHT22;16962;48.646;9.026;2023-03-29T13:06:59;15.30;1.00
30150;DHT22;16962;48.646;9.026;2023-03-29T13:10:27;15.00;1.00
30150;DHT22;16962;48.646;9.026;2023-03-29T13:13:22;14.90;1.00
30150;DHT22;16962;48.646;9.026;2023-03-29T13:16:19;15.10;1.00
30150;DHT22;16962;48.646;9.026;2023-03-29T13:25:46;14.70;1.00
30150;DHT22;16962;48.646;9.026;2023-03-29T13:38:41;13.50;16.30
30150;DHT22;16962;48.646;9.026;2023-03-29T13:41:30;13.00;25.50
30150;DHT22;16962;48.646;9.026;2023-03-29T13:44:41;12.90;38.00
30150;DHT22;16962;48.646;9.026;2023-03-29T13:50:34;12.90;63.60
30150;DHT22;16962;48.646;9.026;2023-03-29T13:53:38;13.20;85.20
30150;DHT22;16962;48.646;9.026;2023-03-29T13:59:56;13.50;44.10
30150;DHT22;16962;48.646;9.026;2023-03-29T14:03:00;13.60;46.40
30150;DHT22;16962;48.646;9.026;2023-03-29T14:05:57;13.70;38.80
30150;DHT22;16962;48.646;9.026;2023-03-29T14:08:49;13.90;31.00
30150;DHT22;16962;48.646;9.026;2023-03-29T14:11:37;14.00;31.70
30150;DHT22;16962;48.646;9.026;2023-03-29T14:14:31;14.10;28.60
30150;DHT22;16962;48.646;9.026;2023-03-29T14:17:21;14.20;27.00
30150;DHT22;16962;48.646;9.026;2023-03-29T14:20:14;14.40;17.20
30150;DHT22;16962;48.646;9.026;2023-03-29T14:23:10;14.50;21.20
30150;DHT22;16962;48.646;9.026;2023-03-29T14:26:17;14.70;21.80
30150;DHT22;16962;48.646;9.026;2023-03-29T14:29:05;14.80;15.00
30150;DHT22;16962;48.646;9.026;2023-03-29T14:31:53;14.70;8.80
30150;DHT22;16962;48.646;9.026;2023-03-29T14:34:41;14.90;8.20
30150;DHT22;16962;48.646;9.026;2023-03-29T14:37:29;15.10;8.50
30150;DHT22;16962;48.646;9.026;2023-03-29T14:40:19;15.30;4.60
30150;DHT22;16962;48.646;9.026;2023-03-29T14:43:08;15.60;1.00
30150;DHT22;16962;48.646;9.026;2023-03-29T14:45:57;16.20;1.00
30150;DHT22;16962;48.646;9.026;2023-03-29T14:48:47;17.10;1.00
30150;DHT22;16962;48.646;9.026;2023-03-29T14:51:35;17.30;1.00
30150;DHT22;16962;48.646;9.026;2023-03-29T14:54:26;17.00;1.00
30150;DHT22;16962;48.646;9.026;2023-03-29T14:57:15;16.70;1.00
30150;DHT22;16962;48.646;9.026;2023-03-29T15:00:38;16.00;1.00
30150;DHT22;16962;48.646;9.026;2023-03-29T15:03:28;15.80;1.00
30150;DHT22;16962;48.646;9.026;2023-03-29T15:06:17;15.90;1.00
30150;DHT22;16962;48.646;9.026;2023-03-29T15:09:06;15.80;1.00
30150;DHT22;16962;48.646;9.026;2023-03-29T15:11:57;15.70;1.00
30150;DHT22;16962;48.646;9.026;2023-03-29T15:14:50;16.20;1.00
30150;DHT22;16962;48.646;9.026;2023-03-29T15:17:40;17.40;1.00
30150;DHT22;16962;48.646;9.026;2023-03-29T15:20:41;17.30;1.00
30150;DHT22;16962;48.646;9.026;2023-03-29T15:23:55;17.80;1.00
30150;DHT22;16962;48.646;9.026;2023-03-29T15:26:43;18.60;1.00
30150;DHT22;16962;48.646;9.026;2023-03-29T15:29:38;18.90;1.00
30150;DHT22;16962;48.646;9.026;2023-03-29T15:32:45;18.20;1.00
30150;DHT22;16962;48.646;9.026;2023-03-29T15:35:34;18.20;1.00
30150;DHT22;16962;48.646;9.026;2023-03-29T15:38:21;18.40;1.00
30150;DHT22;16962;48.646;9.026;2023-03-29T15:41:22;18.40;1.00
30150;DHT22;16962;48.646;9.026;2023-03-29T15:44:10;17.70;1.00
30150;DHT22;16962;48.646;9.026;2023-03-29T15:47:01;17.00;1.00
30150;DHT22;16962;48.646;9.026;2023-03-29T15:49:48;16.50;1.00
30150;DHT22;16962;48.646;9.026;2023-03-29T15:52:37;16.20;1.00
30150;DHT22;16962;48.646;9.026;2023-03-29T15:55:25;16.10;1.00
30150;DHT22;16962;48.646;9.026;2023-03-29T15:58:23;15.90;1.00
30150;DHT22;16962;48.646;9.026;2023-03-29T16:01:36;15.80;1.00
30150;DHT22;16962;48.646;9.026;2023-03-29T16:04:24;15.60;1.00
30150;DHT22;16962;48.646;9.026;2023-03-29T16:07:14;15.60;1.00
30150;DHT22;16962;48.646;9.026;2023-03-29T16:10:02;15.40;1.00
30150;DHT22;16962;48.646;9.026;2023-03-29T16:13:03;15.40;1.00
30150;DHT22;16962;48.646;9.026;2023-03-29T16:16:07;15.40;1.00
30150;DHT22;16962;48.646;9.026;2023-03-29T16:18:55;15.30;1.00
30150;DHT22;16962;48.646;9.026;2023-03-29T16:21:43;15.20;1.00
30150;DHT22;16962;48.646;9.026;2023-03-29T16:24:31;15.20;1.00
30150;DHT22;16962;48.646;9.026;2023-03-29T16:27:19;15.30;1.00
30150;DHT22;16962;48.646;9.026;2023-03-29T16:30:09;15.30;1.00
30150;DHT22;16962;48.646;9.026;2023-03-29T16:32:57;15.40;1.00
30150;DHT22;16962;48.646;9.026;2023-03-29T16:35:52;15.30;1.00
30150;DHT22;16962;48.646;9.026;2023-03-29T16:38:42;15.30;1.00
30150;DHT22;16962;48.646;9.026;2023-03-29T16:41:29;15.30;1.00
30150;DHT22;16962;48.646;9.026;2023-03-29T16:44:19;15.20;1.00
30150;DHT22;16962;48.646;9.026;2023-03-29T16:47:10;15.20;1.00
30150;DHT22;16962;48.646;9.026;2023-03-29T16:49:58;15.10;1.00
30150;DHT22;16962;48.646;9.026;2023-03-29T16:52:46;15.10;1.00
30150;DHT22;16962;48.646;9.026;2023-03-29T16:55:38;15.00;1.00
30150;DHT22;16962;48.646;9.026;2023-03-29T16:58:26;15.00;1.00
30150;DHT22;16962;48.646;9.026;2023-03-29T17:01:14;14.90;1.00
30150;DHT22;16962;48.646;9.026;2023-03-29T17:04:02;14.90;1.00
30150;DHT22;16962;48.646;9.026;2023-03-29T17:06:50;14.80;1.00
30150;DHT22;16962;48.646;9.026;2023-03-29T17:09:40;14.80;1.00
30150;DHT22;16962;48.646;9.026;2023-03-29T17:12:27;14.70;1.00
30150;DHT22;16962;48.646;9.026;2023-03-29T17:15:15;14.60;1.00
30150;DHT22;16962;48.646;9.026;2023-03-29T17:18:07;14.50;1.00
30150;DHT22;16962;48.646;9.026;2023-03-29T17:20:56;14.60;1.00
30150;DHT22;16962;48.646;9.026;2023-03-29T17:23:44;14.60;1.00
30150;DHT22;16962;48.646;9.026;2023-03-29T17:26:32;14.50;1.00
30150;DHT22;16962;48.646;9.026;2023-03-29T17:29:19;14.50;1.00
30150;DHT22;16962;48.646;9.026;2023-03-29T17:32:06;14.40;1.00
30150;DHT22;16962;48.646;9.026;2023-03-29T17:34:54;14.40;1.00
30150;DHT22;16962;48.646;9.026;2023-03-29T17:37:41;14.40;1.00
30150;DHT22;16962;48.646;9.026;2023-03-29T17:40:34;14.30;1.00
30150;DHT22;16962;48.646;9.026;2023-03-29T17:43:21;14.30;1.00
30150;DHT22;16962;48.646;9.026;2023-03-29T17:46:09;14.20;1.00
30150;DHT22;16962;48.646;9.026;2023-03-29T17:49:05;14.10;1.00
30150;DHT22;16962;48.646;9.026;2023-03-29T17:51:52;14.00;1.00
30150;DHT22;16962;48.646;9.026;2023-03-29T17:54:42;13.90;1.00
30150;DHT22;16962;48.646;9.026;2023-03-29T17:57:33;13.80;1.00
30150;DHT22;16962;48.646;9.026;2023-03-29T18:00:22;13.70;1.00
30150;DHT22;16962;48.646;9.026;2023-03-29T18:03:10;13.60;1.00
30150;DHT22;16962;48.646;9.026;2023-03-29T18:06:00;13.50;1.00
30150;DHT22;16962;48.646;9.026;2023-03-29T18:08:48;13.40;1.00
30150;DHT22;16962;48.646;9.026;2023-03-29T18:11:42;13.30;1.00
30150;DHT22;16962;48.646;9.026;2023-03-29T18:14:29;13.10;1.30
30150;DHT22;16962;48.646;9.026;2023-03-29T18:17:19;13.00;8.30
30150;DHT22;16962;48.646;9.026;2023-03-29T18:20:08;13.00;9.50
30150;DHT22;16962;48.646;9.026;2023-03-29T18:22:57;13.10;2.60
30150;DHT22;16962;48.646;9.026;2023-03-29T18:25:44;13.10;13.50
30150;DHT22;16962;48.646;9.026;2023-03-29T18:28:33;13.20;3.00
30150;DHT22;16962;48.646;9.026;2023-03-29T18:31:21;13.30;2.00
30150;DHT22;16962;48.646;9.026;2023-03-29T18:34:08;13.40;1.00
30150;DHT22;16962;48.646;9.026;2023-03-29T18:36:56;13.40;1.00
30150;DHT22;16962;48.646;9.026;2023-03-29T18:39:44;13.40;1.00
30150;DHT22;16962;48.646;9.026;2023-03-29T18:42:32;13.50;1.00
30150;DHT22;16962;48.646;9.026;2023-03-29T18:45:22;13.40;1.00
30150;DHT22;16962;48.646;9.026;2023-03-29T18:51:31;13.40;1.00
30150;DHT22;16962;48.646;9.026;2023-03-29T18:54:19;13.50;1.00
30150;DHT22;16962;48.646;9.026;2023-03-29T18:57:07;13.60;1.00
30150;DHT22;16962;48.646;9.026;2023-03-29T18:59:58;13.60;1.00
30150;DHT22;16962;48.646;9.026;2023-03-29T19:02:47;13.40;1.00
30150;DHT22;16962;48.646;9.026;2023-03-29T19:05:41;13.40;1.00
30150;DHT22;16962;48.646;9.026;2023-03-29T19:08:29;13.40;1.00
30150;DHT22;16962;48.646;9.026;2023-03-29T19:11:21;13.40;1.00
30150;DHT22;16962;48.646;9.026;2023-03-29T19:14:09;13.30;1.00
30150;DHT22;16962;48.646;9.026;2023-03-29T19:17:00;13.10;5.10
30150;DHT22;16962;48.646;9.026;2023-03-29T19:19:50;12.90;14.20
30150;DHT22;16962;48.646;9.026;2023-03-29T19:22:38;12.70;18.90
30150;DHT22;16962;48.646;9.026;2023-03-29T19:25:29;12.60;20.70
30150;DHT22;16962;48.646;9.026;2023-03-29T19:28:16;12.40;25.30
30150;DHT22;16962;48.646;9.026;2023-03-29T19:31:05;12.30;31.70
30150;DHT22;16962;48.646;9.026;2023-03-29T19:33:58;12.10;39.70
30150;DHT22;16962;48.646;9.026;2023-03-29T19:36:46;12.00;54.50
30150;DHT22;16962;48.646;9.026;2023-03-29T19:39:36;11.80;68.10
30150;DHT22;16962;48.646;9.026;2023-03-29T19:42:27;11.70;87.90
30150;DHT22;16962;48.646;9.026;2023-03-29T19:45:15;11.60;96.40
30150;DHT22;16962;48.646;9.026;2023-03-29T19:48:02;11.60;99.90
30150;DHT22;16962;48.646;9.026;2023-03-29T19:50:50;11.50;99.90
30150;DHT22;16962;48.646;9.026;2023-03-29T19:53:38;11.40;99.90
30150;DHT22;16962;48.646;9.026;2023-03-29T19:56:28;11.40;99.90
30150;DHT22;16962;48.646;9.026;2023-03-29T19:59:17;11.30;99.90
30150;DHT22;16962;48.646;9.026;2023-03-29T20:02:10;11.30;99.90
30150;DHT22;16962;48.646;9.026;2023-03-29T20:04:58;11.30;99.90
30150;DHT22;16962;48.646;9.026;2023-03-29T20:07:51;11.30;99.90
30150;DHT22;16962;48.646;9.026;2023-03-29T20:10:40;11.30;99.90
30150;DHT22;16962;48.646;9.026;2023-03-29T20:13:28;11.30;99.90